Arcadia, WI

11:56 AM CST en Noviembre 28, 2014 (GMT -0600)
Winona Municipal-Conrad | Change Station
CLOSE
Current Station
Aeropuerto
Location: Winona,
Altura: 656 ft
Estaciones meteorológicas cercanas

Alt 656 ft 44.08 °N, 91.71 °W | Updated 21 minutes ago

Parcialmente nublado
Parcialmente nublado
27 ° F
Sensación térmica 23 ° F
N
4
Viento Variable Viento desde Sur

Hoy
Alta -- | Baja -- ° F
--% Posibilidad de precipitaciones
Ayer
Alta -- | Baja -- ° F
Precip. -- pul
7:18 AM 4:29 PM
Creciente, 42% visible
Presión 29.99 pul
Visibilidad 10.0 Millas
Nubes Nubes dispersas 2600 ft
Vientos helados 23 ° F
Punto de rocío 14 ° F
Humedad 59%
Precipitaciones 0.01 pul
Espesor de la nieve No disponible.
UV 2 de una escala de 12
Polen .10 de una escala de 12
Calidad del aire No disponible.
Flu Activity No disponible.
METAR KONA 281735Z AUTO 19003KT 10SM SCT026 M03/M10 A2999 RMK AO2

More Conditions Fewer Conditions

Presión 29.99 pul
Visibilidad 10.0 Millas
Nubes Nubes dispersas 2600 ft
Vientos helados 23 ° F
Punto de rocío 14 ° F
Humedad 59%
Precipitaciones 0.01 pul
Espesor de la nieve No disponible.
UV 2 de una escala de 12
Polen .10 de una escala de 12
Calidad del aire No disponible.
Flu Activity No disponible.
METAR KONA 281735Z AUTO 19003KT 10SM SCT026 M03/M10 A2999 RMK AO2

More Conditions Fewer Conditions

10-Day Weather Forecast

Almanac

Astronomía

Nov. 28, 2014 Salida Puesta
Hora real
Crepúsculo civil
Crepúsculo náutico
Crepúsculo astronómico
Luna
Horas de luz
Horas de luz
Tomorrow will be .
, % of the Moon is Illuminated

Extremos de hoy

Máximos del estado Bajos del estado

Community

WunderPhotos

Upload Photos

1,774,245 ¡fotos cargadas!

WunderBlogs® & News

Nearby

Calidad del aire

  Calidad del aire Índice AQ Contaminante
Not available.

Grosos de nieve

Estación Profundido Altura

Actividad de terremotos

Ciudad Distance Mag. Tiempo y dato
Magnitud mínima muestra es 2,5.

Temperaturas de aguas costeras

Lugar Temperatura

Estaciones meteorológicas cercanas